createdAt,value
2023-09-01T00:04:10.272Z,100776.31
2023-09-01T00:09:09.051Z,100772.13
2023-09-01T00:14:08.057Z,100768.13
2023-09-01T00:19:07.030Z,100774.69
2023-09-01T00:24:07.870Z,100780.84
2023-09-01T00:29:06.877Z,100785.59
2023-09-01T00:34:06.570Z,100778.72
2023-09-01T00:39:06.939Z,100790.63
2023-09-01T00:44:06.768Z,100801.22
2023-09-01T00:49:05.689Z,100799.19
2023-09-01T00:54:06.902Z,100796.00
2023-09-01T00:59:06.417Z,100799.69
2023-09-01T01:04:09.174Z,100796.13
2023-09-01T01:09:19.217Z,100807.72
2023-09-01T01:14:25.990Z,100820.75
2023-09-01T01:19:51.497Z,100805.72
2023-09-01T01:24:51.859Z,100819.63
2023-09-01T01:29:51.083Z,100824.97
2023-09-01T01:34:56.316Z,100817.56
2023-09-01T01:39:58.004Z,100834.19
2023-09-01T01:44:59.344Z,100832.34
2023-09-01T01:49:58.211Z,100844.19
2023-09-01T01:54:58.559Z,100832.97
2023-09-01T01:59:57.408Z,100842.00
2023-09-01T02:04:56.304Z,100840.31
2023-09-01T02:09:55.092Z,100842.16
2023-09-01T02:14:55.673Z,100844.31
2023-09-01T02:19:54.706Z,100851.91
2023-09-01T02:24:53.584Z,100844.66
2023-09-01T02:29:52.455Z,100857.03
2023-09-01T02:34:52.844Z,100863.16
2023-09-01T02:39:51.773Z,100866.75
2023-09-01T02:44:50.701Z,100878.22
2023-09-01T02:49:49.581Z,100876.19
2023-09-01T02:54:49.844Z,100869.19
2023-09-01T02:59:48.693Z,100865.66
2023-09-01T03:04:49.701Z,100868.06
2023-09-01T03:09:50.429Z,100862.00
2023-09-01T03:14:50.081Z,100861.22
2023-09-01T03:19:51.981Z,100862.84
2023-09-01T03:24:53.531Z,100872.28
2023-09-01T03:29:55.915Z,100871.44
2023-09-01T03:34:57.614Z,100879.28
2023-09-01T03:39:57.996Z,100880.66
2023-09-01T03:44:56.869Z,100879.94
2023-09-01T03:49:55.996Z,100884.81
2023-09-01T03:54:55.777Z,100887.94
2023-09-01T03:59:56.157Z,100891.47
2023-09-01T04:04:54.989Z,100895.63
2023-09-01T04:09:53.835Z,100897.97
2023-09-01T04:14:52.794Z,100903.06
2023-09-01T04:19:53.315Z,100894.63
2023-09-01T04:24:53.024Z,100893.88
2023-09-01T04:30:07.770Z,100907.72
2023-09-01T04:35:12.058Z,100922.56
2023-09-01T04:40:12.605Z,100922.72
2023-09-01T04:45:12.407Z,100930.56
2023-09-01T04:50:12.867Z,100930.50
2023-09-01T04:55:12.068Z,100929.66
2023-09-01T05:00:18.234Z,100947.84
2023-09-01T05:05:18.901Z,100948.34
2023-09-01T05:10:18.717Z,100951.00
2023-09-01T05:15:17.729Z,100956.53
2023-09-01T05:20:16.781Z,100964.66
2023-09-01T05:25:17.355Z,100955.53
2023-09-01T05:30:16.318Z,100953.94
2023-09-01T05:35:15.866Z,100952.59
2023-09-01T05:40:18.418Z,100964.72
2023-09-01T05:45:18.248Z,100967.66
2023-09-01T05:50:17.334Z,100968.59
2023-09-01T05:55:18.161Z,100968.59
2023-09-01T06:00:17.652Z,100975.47
2023-09-01T06:05:18.028Z,100977.84
2023-09-01T06:10:18.698Z,100973.09
2023-09-01T06:15:17.557Z,100963.84
2023-09-01T06:20:20.226Z,100964.44
2023-09-01T06:25:24.185Z,100973.34
2023-09-01T06:30:24.751Z,100981.78
2023-09-01T06:35:23.640Z,100987.22
2023-09-01T06:40:23.938Z,101000.28
2023-09-01T06:45:22.894Z,101007.03
2023-09-01T06:50:21.935Z,101003.81
2023-09-01T06:55:20.707Z,101014.03
2023-09-01T07:00:21.520Z,101006.72
2023-09-01T07:05:21.676Z,101013.41
2023-09-01T07:10:21.324Z,101032.59
2023-09-01T07:15:22.011Z,101041.47
2023-09-01T07:20:21.022Z,101026.19
2023-09-01T07:25:20.035Z,101038.69
2023-09-01T07:30:18.982Z,101040.78
2023-09-01T07:35:19.424Z,101044.22
2023-09-01T07:40:18.320Z,101047.19
2023-09-01T07:45:17.666Z,101045.03
2023-09-01T07:50:16.696Z,101042.53
2023-09-01T07:55:17.253Z,101039.56
2023-09-01T08:00:18.598Z,101039.28
2023-09-01T08:05:17.636Z,101036.31
2023-09-01T08:10:18.094Z,101038.53
2023-09-01T08:15:17.042Z,101029.25
2023-09-01T08:20:15.892Z,101026.59
2023-09-01T08:25:14.867Z,101041.38
2023-09-01T08:30:15.715Z,101030.94
2023-09-01T08:35:14.848Z,101035.63
2023-09-01T08:40:14.049Z,101033.94
2023-09-01T08:45:16.047Z,101033.16
2023-09-01T08:50:16.162Z,101025.66
2023-09-01T08:55:15.220Z,101034.31
2023-09-01T09:00:16.789Z,101031.03
2023-09-01T09:05:17.827Z,101025.84
2023-09-01T09:10:16.739Z,101021.00
2023-09-01T09:15:21.186Z,101022.56
2023-09-01T09:20:41.195Z,101021.41
2023-09-01T09:25:40.019Z,101016.06
2023-09-01T09:30:50.605Z,101006.25
2023-09-01T09:35:53.068Z,101011.19
2023-09-01T09:40:58.980Z,101005.88
2023-09-01T09:46:02.137Z,101003.69
2023-09-01T09:51:02.338Z,101010.66
2023-09-01T09:56:11.773Z,100996.59
2023-09-01T10:01:18.357Z,100984.25
2023-09-01T10:06:19.210Z,100987.88
2023-09-01T10:11:19.999Z,100983.84
2023-09-01T10:16:20.995Z,100983.00
2023-09-01T10:21:19.895Z,100979.72
2023-09-01T10:26:26.419Z,100985.84
2023-09-01T10:31:27.670Z,100970.03
2023-09-01T10:36:26.937Z,100982.09
2023-09-01T10:41:52.749Z,100974.88
2023-09-01T10:46:53.189Z,100973.66
2023-09-01T10:52:15.485Z,100978.81
2023-09-01T10:57:16.167Z,100986.34
2023-09-01T11:02:30.025Z,100976.28
2023-09-01T11:07:33.067Z,100974.59
2023-09-01T11:12:40.566Z,100972.00
2023-09-01T11:17:46.336Z,100970.22
2023-09-01T11:22:47.455Z,100973.84
2023-09-01T11:27:57.071Z,100965.81
2023-09-01T11:33:02.214Z,100958.69
2023-09-01T11:38:02.339Z,100945.88
2023-09-01T11:43:03.029Z,100952.31
2023-09-01T11:48:09.595Z,100946.31
2023-09-01T11:53:08.923Z,100955.78
2023-09-01T11:58:09.969Z,100938.69
2023-09-01T12:03:11.158Z,100938.19
2023-09-01T12:08:17.586Z,100930.84
2023-09-01T12:13:38.005Z,100930.88
2023-09-01T12:18:44.976Z,100930.69
2023-09-01T12:23:50.588Z,100926.38
2023-09-01T12:28:56.557Z,100924.38
2023-09-01T12:34:00.074Z,100928.81
2023-09-01T12:39:02.004Z,100921.31
2023-09-01T12:44:26.819Z,100920.88
2023-09-01T12:49:33.867Z,100911.38
2023-09-01T12:54:48.197Z,100912.38
2023-09-01T12:59:58.777Z,100919.19
2023-09-01T13:05:19.860Z,100917.72
2023-09-01T13:10:33.523Z,100912.47
2023-09-01T13:15:35.587Z,100908.16
2023-09-01T13:20:46.207Z,100908.91
2023-09-01T13:25:45.128Z,100912.59
2023-09-01T13:30:45.780Z,100909.88
2023-09-01T13:36:03.025Z,100920.94
2023-09-01T13:41:10.658Z,100910.94
2023-09-01T13:46:23.615Z,100914.63
2023-09-01T13:51:30.064Z,100915.66
2023-09-01T13:56:32.375Z,100917.03
2023-09-01T14:01:32.052Z,100918.56
2023-09-01T14:06:33.489Z,100921.50
2023-09-01T14:11:36.057Z,100924.50
2023-09-01T14:16:35.065Z,100927.00
2023-09-01T14:21:44.486Z,100926.31
2023-09-01T14:26:52.656Z,100924.41
2023-09-01T14:31:52.793Z,100917.84
2023-09-01T14:36:54.011Z,100922.13
2023-09-01T14:41:53.935Z,100915.59
2023-09-01T14:46:54.338Z,100911.28
2023-09-01T14:51:55.100Z,100911.16
2023-09-01T14:57:29.044Z,100905.06
2023-09-01T15:03:10.036Z,100903.09
2023-09-01T15:08:12.909Z,100907.28
2023-09-01T15:13:18.493Z,100911.00
2023-09-01T15:18:17.788Z,100910.19
2023-09-01T15:23:18.749Z,100902.78
2023-09-01T15:28:18.135Z,100896.38
2023-09-01T15:33:17.492Z,100896.59
2023-09-01T15:38:16.403Z,100898.00
2023-09-01T15:43:16.823Z,100911.75
2023-09-01T15:48:16.199Z,100908.97
2023-09-01T15:53:16.083Z,100913.34
2023-09-01T15:58:16.608Z,100912.38
2023-09-01T16:03:18.816Z,100908.22
2023-09-01T16:08:21.406Z,100906.72
2023-09-01T16:13:21.684Z,100904.53
2023-09-01T16:18:20.445Z,100905.53
2023-09-01T16:23:19.286Z,100911.41
2023-09-01T16:28:19.440Z,100908.94
2023-09-01T16:33:19.647Z,100904.41
2023-09-01T16:38:18.442Z,100912.97
2023-09-01T16:43:17.900Z,100912.63
2023-09-01T16:48:17.800Z,100914.38
2023-09-01T16:53:18.261Z,100914.84
2023-09-01T16:58:17.546Z,100918.03
2023-09-01T17:03:16.563Z,100932.44
2023-09-01T17:08:15.713Z,100941.13
2023-09-01T17:13:17.077Z,100944.28
2023-09-01T17:18:16.589Z,100953.97
2023-09-01T17:23:16.001Z,100949.84
2023-09-01T17:28:16.370Z,100953.81
2023-09-01T17:33:15.735Z,100961.56
2023-09-01T17:38:18.225Z,100971.56
2023-09-01T17:43:18.833Z,100972.59
2023-09-01T17:48:18.028Z,100990.25
2023-09-01T17:53:17.022Z,100992.94
2023-09-01T17:58:16.015Z,101003.06
2023-09-01T18:03:16.581Z,101007.44
2023-09-01T18:08:15.634Z,101007.13
2023-09-01T18:13:15.785Z,101009.03
2023-09-01T18:18:16.898Z,101017.31
2023-09-01T18:23:18.823Z,101023.69
2023-09-01T18:28:18.185Z,101018.66
2023-09-01T18:33:24.594Z,101018.81
2023-09-01T18:38:27.097Z,101033.81
2023-09-01T18:43:28.896Z,101048.16
2023-09-01T18:48:29.370Z,101054.72
2023-09-01T18:53:33.142Z,101059.91
2023-09-01T18:58:40.709Z,101063.72
2023-09-01T19:03:42.987Z,101064.91
2023-09-01T19:08:42.136Z,101064.47
2023-09-01T19:13:41.166Z,101066.69
2023-09-01T19:18:42.816Z,101064.06
2023-09-01T19:23:42.462Z,101068.25
2023-09-01T19:28:46.330Z,101070.78
2023-09-01T19:33:54.919Z,101077.22
2023-09-01T19:38:53.944Z,101070.50
2023-09-01T19:43:58.093Z,101067.53
2023-09-01T19:48:59.886Z,101074.16
2023-09-01T19:54:00.556Z,101073.44
2023-09-01T19:59:02.129Z,101081.00
2023-09-01T20:04:03.360Z,101082.94
2023-09-01T20:09:13.088Z,101084.06
2023-09-01T20:14:12.558Z,101091.03
2023-09-01T20:19:16.202Z,101099.53
2023-09-01T20:24:14.940Z,101102.59
2023-09-01T20:29:13.911Z,101112.78
2023-09-01T20:34:17.169Z,101112.88
2023-09-01T20:39:17.080Z,101120.03
2023-09-01T20:44:16.166Z,101119.44
2023-09-01T20:49:16.554Z,101119.28
2023-09-01T20:54:15.407Z,101122.25
2023-09-01T20:59:14.194Z,101121.84
2023-09-01T21:04:13.109Z,101123.22
2023-09-01T21:09:14.200Z,101126.00
2023-09-01T21:14:13.264Z,101143.59
2023-09-01T21:19:12.927Z,101137.53
2023-09-01T21:24:13.168Z,101138.72
2023-09-01T21:29:12.105Z,101136.91
2023-09-01T21:34:11.031Z,101140.16
2023-09-01T21:39:10.001Z,101149.97
2023-09-01T21:44:12.685Z,101146.94
2023-09-01T21:49:12.001Z,101146.44
2023-09-01T21:54:11.016Z,101152.13
2023-09-01T21:59:11.400Z,101149.84
2023-09-01T22:04:10.553Z,101148.50
2023-09-01T22:09:09.582Z,101152.25
2023-09-01T22:14:08.510Z,101151.41
2023-09-01T22:19:08.876Z,101147.88
2023-09-01T22:24:08.905Z,101146.84
2023-09-01T22:29:07.741Z,101149.53
2023-09-01T22:34:08.108Z,101151.56
2023-09-01T22:40:35.409Z,101152.09
2023-09-01T22:45:34.391Z,101149.91
2023-09-01T22:50:34.708Z,101145.50
2023-09-01T22:55:33.759Z,101148.06
2023-09-01T23:00:34.536Z,101144.03
2023-09-01T23:05:34.973Z,101146.38
2023-09-01T23:10:34.175Z,101153.31
2023-09-01T23:15:33.291Z,101159.88
2023-09-01T23:20:32.269Z,101167.81
2023-09-01T23:25:34.825Z,101170.03
2023-09-01T23:30:34.038Z,101175.72
2023-09-01T23:35:33.546Z,101175.53
2023-09-01T23:40:34.392Z,101176.91
2023-09-01T23:45:33.420Z,101176.53
2023-09-01T23:50:32.402Z,101182.59
2023-09-01T23:55:31.212Z,101192.88
